<?xml version="1.0" encoding="UTF-8" standalone="no" ?>
<gpx xmlns="http://www.topografix.com/GPX/1/1" xmlns:xsi="http://www.w3.org/2001/XMLSchema-instance" xsi:schemaLocation="http://www.topografix.com/GPX/1/1 http://www.topografix.com/GPX/1/1/gpx.xsd" version="1.1" creator="VisuGPX - https://www.visugpx.com">
  <metadata>
    <name>Hennebont Le Talhouët</name>
    <desc><![CDATA[Marche facile, faire attention en cas d'humidité, aux feuilles mortes sur les racines.]]></desc>
  </metadata>
  <trk>
    <name><![CDATA[Hennebont Talhouetl: 31 JAN 2018]]></name>
    <trkseg>
      <trkpt lat="47.80628" lon="-3.28134">
        <ele>16.48</ele>
        <time>2018-01-31T12:58:13Z</time>
      </trkpt>
      <trkpt lat="47.80628" lon="-3.28134">
        <ele>16.48</ele>
        <time>2018-01-31T12:58:14Z</time>
      </trkpt>
      <trkpt lat="47.80628" lon="-3.28133">
        <ele>16.96</ele>
        <time>2018-01-31T12:58:42Z</time>
      </trkpt>
      <trkpt lat="47.80632" lon="-3.28137">
        <ele>16.48</ele>
        <time>2018-01-31T12:58:57Z</time>
      </trkpt>
      <trkpt lat="47.80634" lon="-3.28137">
        <ele>16.96</ele>
        <time>2018-01-31T12:59:12Z</time>
      </trkpt>
      <trkpt lat="47.80628" lon="-3.28142">
        <ele>16.48</ele>
        <time>2018-01-31T12:59:25Z</time>
      </trkpt>
      <trkpt lat="47.80631" lon="-3.28142">
        <ele>16.96</ele>
        <time>2018-01-31T12:59:41Z</time>
      </trkpt>
      <trkpt lat="47.80628" lon="-3.28144">
        <ele>16.48</ele>
        <time>2018-01-31T12:59:56Z</time>
      </trkpt>
      <trkpt lat="47.8063" lon="-3.28141">
        <ele>16.48</ele>
        <time>2018-01-31T13:00:15Z</time>
      </trkpt>
      <trkpt lat="47.80632" lon="-3.28138">
        <ele>16.96</ele>
        <time>2018-01-31T13:00:42Z</time>
      </trkpt>
      <trkpt lat="47.80632" lon="-3.28141">
        <ele>16.48</ele>
        <time>2018-01-31T13:01:03Z</time>
      </trkpt>
      <trkpt lat="47.80631" lon="-3.28144">
        <ele>16.96</ele>
        <time>2018-01-31T13:01:29Z</time>
      </trkpt>
      <trkpt lat="47.80633" lon="-3.28141">
        <ele>16.96</ele>
        <time>2018-01-31T13:01:42Z</time>
      </trkpt>
      <trkpt lat="47.80632" lon="-3.2814">
        <ele>16.48</ele>
        <time>2018-01-31T13:01:54Z</time>
      </trkpt>
      <trkpt lat="47.8063" lon="-3.28141">
        <ele>16.48</ele>
        <time>2018-01-31T13:02:12Z</time>
      </trkpt>
      <trkpt lat="47.8063" lon="-3.28144">
        <ele>16.96</ele>
        <time>2018-01-31T13:02:34Z</time>
      </trkpt>
      <trkpt lat="47.80629" lon="-3.28142">
        <ele>16.48</ele>
        <time>2018-01-31T13:02:53Z</time>
      </trkpt>
      <trkpt lat="47.80627" lon="-3.28144">
        <ele>16.48</ele>
        <time>2018-01-31T13:03:12Z</time>
      </trkpt>
      <trkpt lat="47.80629" lon="-3.28141">
        <ele>16.96</ele>
        <time>2018-01-31T13:03:27Z</time>
      </trkpt>
      <trkpt lat="47.80631" lon="-3.28141">
        <ele>16.96</ele>
        <time>2018-01-31T13:03:54Z</time>
      </trkpt>
      <trkpt lat="47.8063" lon="-3.28141">
        <ele>16.48</ele>
        <time>2018-01-31T13:04:16Z</time>
      </trkpt>
      <trkpt lat="47.80631" lon="-3.28145">
        <ele>16</ele>
        <time>2018-01-31T13:04:32Z</time>
      </trkpt>
      <trkpt lat="47.8063" lon="-3.28144">
        <ele>16</ele>
        <time>2018-01-31T13:04:46Z</time>
      </trkpt>
      <trkpt lat="47.80631" lon="-3.28145">
        <ele>16</ele>
        <time>2018-01-31T13:04:55Z</time>
      </trkpt>
      <trkpt lat="47.80624" lon="-3.28151">
        <ele>16</ele>
        <time>2018-01-31T13:05:09Z</time>
      </trkpt>
      <trkpt lat="47.80616" lon="-3.28157">
        <ele>15.52</ele>
        <time>2018-01-31T13:05:22Z</time>
      </trkpt>
      <trkpt lat="47.80599" lon="-3.28174">
        <ele>16</ele>
        <time>2018-01-31T13:05:40Z</time>
      </trkpt>
      <trkpt lat="47.80597" lon="-3.28175">
        <ele>15.52</ele>
        <time>2018-01-31T13:05:42Z</time>
      </trkpt>
      <trkpt lat="47.80595" lon="-3.2818">
        <ele>15.52</ele>
        <time>2018-01-31T13:05:48Z</time>
      </trkpt>
      <trkpt lat="47.8058" lon="-3.28193">
        <ele>15.52</ele>
        <time>2018-01-31T13:06:07Z</time>
      </trkpt>
      <trkpt lat="47.80566" lon="-3.28203">
        <ele>16</ele>
        <time>2018-01-31T13:06:23Z</time>
      </trkpt>
      <trkpt lat="47.80564" lon="-3.28207">
        <ele>16</ele>
        <time>2018-01-31T13:06:27Z</time>
      </trkpt>
      <trkpt lat="47.80556" lon="-3.28213">
        <ele>15.52</ele>
        <time>2018-01-31T13:06:37Z</time>
      </trkpt>
      <trkpt lat="47.80551" lon="-3.28233">
        <ele>14.56</ele>
        <time>2018-01-31T13:06:50Z</time>
      </trkpt>
      <trkpt lat="47.80545" lon="-3.28236">
        <ele>15.04</ele>
        <time>2018-01-31T13:06:56Z</time>
      </trkpt>
      <trkpt lat="47.80532" lon="-3.28239">
        <ele>15.52</ele>
        <time>2018-01-31T13:07:10Z</time>
      </trkpt>
      <trkpt lat="47.80526" lon="-3.2824">
        <ele>15.04</ele>
        <time>2018-01-31T13:07:15Z</time>
      </trkpt>
      <trkpt lat="47.80507" lon="-3.28238">
        <ele>14.56</ele>
        <time>2018-01-31T13:07:34Z</time>
      </trkpt>
      <trkpt lat="47.8049" lon="-3.28233">
        <ele>15.52</ele>
        <time>2018-01-31T13:07:50Z</time>
      </trkpt>
      <trkpt lat="47.80473" lon="-3.2822">
        <ele>15.52</ele>
        <time>2018-01-31T13:08:08Z</time>
      </trkpt>
      <trkpt lat="47.80457" lon="-3.28204">
        <ele>16</ele>
        <time>2018-01-31T13:08:27Z</time>
      </trkpt>
      <trkpt lat="47.80442" lon="-3.28183">
        <ele>15.52</ele>
        <time>2018-01-31T13:08:46Z</time>
      </trkpt>
      <trkpt lat="47.80426" lon="-3.2816">
        <ele>15.52</ele>
        <time>2018-01-31T13:09:06Z</time>
      </trkpt>
      <trkpt lat="47.80415" lon="-3.28135">
        <ele>16</ele>
        <time>2018-01-31T13:09:25Z</time>
      </trkpt>
      <trkpt lat="47.80415" lon="-3.28132">
        <ele>16.96</ele>
        <time>2018-01-31T13:09:27Z</time>
      </trkpt>
      <trkpt lat="47.80415" lon="-3.28119">
        <ele>16.96</ele>
        <time>2018-01-31T13:09:37Z</time>
      </trkpt>
      <trkpt lat="47.80415" lon="-3.28088">
        <ele>14.56</ele>
        <time>2018-01-31T13:09:57Z</time>
      </trkpt>
      <trkpt lat="47.80405" lon="-3.28064">
        <ele>15.04</ele>
        <time>2018-01-31T13:10:14Z</time>
      </trkpt>
      <trkpt lat="47.80406" lon="-3.28054">
        <ele>15.52</ele>
        <time>2018-01-31T13:10:28Z</time>
      </trkpt>
      <trkpt lat="47.80407" lon="-3.28052">
        <ele>15.52</ele>
        <time>2018-01-31T13:10:34Z</time>
      </trkpt>
      <trkpt lat="47.80408" lon="-3.2805">
        <ele>15.04</ele>
        <time>2018-01-31T13:10:36Z</time>
      </trkpt>
      <trkpt lat="47.80414" lon="-3.28022">
        <ele>15.52</ele>
        <time>2018-01-31T13:10:52Z</time>
      </trkpt>
      <trkpt lat="47.8041" lon="-3.27997">
        <ele>15.52</ele>
        <time>2018-01-31T13:11:07Z</time>
      </trkpt>
      <trkpt lat="47.8041" lon="-3.27984">
        <ele>16</ele>
        <time>2018-01-31T13:11:15Z</time>
      </trkpt>
      <trkpt lat="47.8042" lon="-3.27975">
        <ele>17.44</ele>
        <time>2018-01-31T13:11:30Z</time>
      </trkpt>
      <trkpt lat="47.80434" lon="-3.27965">
        <ele>17.92</ele>
        <time>2018-01-31T13:11:45Z</time>
      </trkpt>
      <trkpt lat="47.80445" lon="-3.27953">
        <ele>19.36</ele>
        <time>2018-01-31T13:11:59Z</time>
      </trkpt>
      <trkpt lat="47.80456" lon="-3.27941">
        <ele>19.84</ele>
        <time>2018-01-31T13:12:12Z</time>
      </trkpt>
      <trkpt lat="47.80469" lon="-3.27927">
        <ele>20.32</ele>
        <time>2018-01-31T13:12:28Z</time>
      </trkpt>
      <trkpt lat="47.80485" lon="-3.27913">
        <ele>21.77</ele>
        <time>2018-01-31T13:12:46Z</time>
      </trkpt>
      <trkpt lat="47.805" lon="-3.27897">
        <ele>22.73</ele>
        <time>2018-01-31T13:13:06Z</time>
      </trkpt>
      <trkpt lat="47.80515" lon="-3.27882">
        <ele>23.21</ele>
        <time>2018-01-31T13:13:24Z</time>
      </trkpt>
      <trkpt lat="47.80528" lon="-3.27867">
        <ele>24.65</ele>
        <time>2018-01-31T13:13:41Z</time>
      </trkpt>
      <trkpt lat="47.80541" lon="-3.2785">
        <ele>25.61</ele>
        <time>2018-01-31T13:13:59Z</time>
      </trkpt>
      <trkpt lat="47.80546" lon="-3.27844">
        <ele>26.57</ele>
        <time>2018-01-31T13:14:08Z</time>
      </trkpt>
      <trkpt lat="47.80558" lon="-3.27839">
        <ele>27.05</ele>
        <time>2018-01-31T13:14:24Z</time>
      </trkpt>
      <trkpt lat="47.80568" lon="-3.27836">
        <ele>29.46</ele>
        <time>2018-01-31T13:14:39Z</time>
      </trkpt>
      <trkpt lat="47.80572" lon="-3.27835">
        <ele>29.46</ele>
        <time>2018-01-31T13:14:52Z</time>
      </trkpt>
      <trkpt lat="47.80575" lon="-3.27828">
        <ele>29.46</ele>
        <time>2018-01-31T13:15:00Z</time>
      </trkpt>
      <trkpt lat="47.80575" lon="-3.27825">
        <ele>29.46</ele>
        <time>2018-01-31T13:15:02Z</time>
      </trkpt>
      <trkpt lat="47.80581" lon="-3.27802">
        <ele>30.42</ele>
        <time>2018-01-31T13:15:19Z</time>
      </trkpt>
      <trkpt lat="47.80581" lon="-3.27778">
        <ele>31.86</ele>
        <time>2018-01-31T13:15:37Z</time>
      </trkpt>
      <trkpt lat="47.80584" lon="-3.27755">
        <ele>31.86</ele>
        <time>2018-01-31T13:15:53Z</time>
      </trkpt>
      <trkpt lat="47.80583" lon="-3.27742">
        <ele>32.34</ele>
        <time>2018-01-31T13:16:08Z</time>
      </trkpt>
      <trkpt lat="47.80585" lon="-3.27736">
        <ele>32.34</ele>
        <time>2018-01-31T13:16:20Z</time>
      </trkpt>
      <trkpt lat="47.80588" lon="-3.27718">
        <ele>32.82</ele>
        <time>2018-01-31T13:16:36Z</time>
      </trkpt>
      <trkpt lat="47.80579" lon="-3.27705">
        <ele>31.86</ele>
        <time>2018-01-31T13:16:50Z</time>
      </trkpt>
      <trkpt lat="47.80578" lon="-3.27704">
        <ele>33.3</ele>
        <time>2018-01-31T13:16:51Z</time>
      </trkpt>
      <trkpt lat="47.80558" lon="-3.277">
        <ele>31.86</ele>
        <time>2018-01-31T13:17:09Z</time>
      </trkpt>
      <trkpt lat="47.80562" lon="-3.27659">
        <ele>34.26</ele>
        <time>2018-01-31T13:17:27Z</time>
      </trkpt>
      <trkpt lat="47.80562" lon="-3.27654">
        <ele>33.78</ele>
        <time>2018-01-31T13:17:30Z</time>
      </trkpt>
      <trkpt lat="47.80566" lon="-3.27634">
        <ele>33.78</ele>
        <time>2018-01-31T13:17:47Z</time>
      </trkpt>
      <trkpt lat="47.80572" lon="-3.27609">
        <ele>34.74</ele>
        <time>2018-01-31T13:18:03Z</time>
      </trkpt>
      <trkpt lat="47.80573" lon="-3.276">
        <ele>35.23</ele>
        <time>2018-01-31T13:18:10Z</time>
      </trkpt>
      <trkpt lat="47.80576" lon="-3.27573">
        <ele>35.71</ele>
        <time>2018-01-31T13:18:29Z</time>
      </trkpt>
      <trkpt lat="47.80577" lon="-3.27554">
        <ele>36.67</ele>
        <time>2018-01-31T13:18:42Z</time>
      </trkpt>
      <trkpt lat="47.8058" lon="-3.27524">
        <ele>37.63</ele>
        <time>2018-01-31T13:19:03Z</time>
      </trkpt>
      <trkpt lat="47.80583" lon="-3.27491">
        <ele>38.59</ele>
        <time>2018-01-31T13:19:23Z</time>
      </trkpt>
      <trkpt lat="47.80585" lon="-3.27469">
        <ele>38.59</ele>
        <time>2018-01-31T13:19:35Z</time>
      </trkpt>
      <trkpt lat="47.80586" lon="-3.27464">
        <ele>38.11</ele>
        <time>2018-01-31T13:19:50Z</time>
      </trkpt>
      <trkpt lat="47.8058" lon="-3.27466">
        <ele>37.63</ele>
        <time>2018-01-31T13:20:06Z</time>
      </trkpt>
      <trkpt lat="47.80579" lon="-3.27466">
        <ele>38.59</ele>
        <time>2018-01-31T13:20:07Z</time>
      </trkpt>
      <trkpt lat="47.80571" lon="-3.27457">
        <ele>38.11</ele>
        <time>2018-01-31T13:20:18Z</time>
      </trkpt>
      <trkpt lat="47.80575" lon="-3.27436">
        <ele>38.59</ele>
        <time>2018-01-31T13:20:36Z</time>
      </trkpt>
      <trkpt lat="47.80575" lon="-3.27433">
        <ele>38.59</ele>
        <time>2018-01-31T13:20:42Z</time>
      </trkpt>
      <trkpt lat="47.80573" lon="-3.27427">
        <ele>39.55</ele>
        <time>2018-01-31T13:20:46Z</time>
      </trkpt>
      <trkpt lat="47.8058" lon="-3.27401">
        <ele>41.47</ele>
        <time>2018-01-31T13:21:03Z</time>
      </trkpt>
      <trkpt lat="47.80583" lon="-3.27388">
        <ele>42.44</ele>
        <time>2018-01-31T13:21:11Z</time>
      </trkpt>
      <trkpt lat="47.80589" lon="-3.27364">
        <ele>43.4</ele>
        <time>2018-01-31T13:21:27Z</time>
      </trkpt>
      <trkpt lat="47.80589" lon="-3.27363">
        <ele>43.88</ele>
        <time>2018-01-31T13:21:28Z</time>
      </trkpt>
      <trkpt lat="47.8059" lon="-3.2735">
        <ele>44.36</ele>
        <time>2018-01-31T13:21:37Z</time>
      </trkpt>
      <trkpt lat="47.80585" lon="-3.27338">
        <ele>44.84</ele>
        <time>2018-01-31T13:21:52Z</time>
      </trkpt>
      <trkpt lat="47.80588" lon="-3.2733">
        <ele>44.84</ele>
        <time>2018-01-31T13:22:00Z</time>
      </trkpt>
      <trkpt lat="47.80591" lon="-3.27318">
        <ele>45.32</ele>
        <time>2018-01-31T13:22:09Z</time>
      </trkpt>
      <trkpt lat="47.80582" lon="-3.27297">
        <ele>46.28</ele>
        <time>2018-01-31T13:22:26Z</time>
      </trkpt>
      <trkpt lat="47.80583" lon="-3.27293">
        <ele>46.28</ele>
        <time>2018-01-31T13:22:30Z</time>
      </trkpt>
      <trkpt lat="47.80585" lon="-3.27289">
        <ele>46.28</ele>
        <time>2018-01-31T13:22:33Z</time>
      </trkpt>
      <trkpt lat="47.80588" lon="-3.2726">
        <ele>46.76</ele>
        <time>2018-01-31T13:22:52Z</time>
      </trkpt>
      <trkpt lat="47.80588" lon="-3.27231">
        <ele>47.24</ele>
        <time>2018-01-31T13:23:11Z</time>
      </trkpt>
      <trkpt lat="47.80588" lon="-3.27226">
        <ele>46.76</ele>
        <time>2018-01-31T13:23:15Z</time>
      </trkpt>
      <trkpt lat="47.80583" lon="-3.27201">
        <ele>46.28</ele>
        <time>2018-01-31T13:23:32Z</time>
      </trkpt>
      <trkpt lat="47.8059" lon="-3.27169">
        <ele>45.8</ele>
        <time>2018-01-31T13:23:52Z</time>
      </trkpt>
      <trkpt lat="47.80589" lon="-3.27158">
        <ele>46.28</ele>
        <time>2018-01-31T13:23:59Z</time>
      </trkpt>
      <trkpt lat="47.80589" lon="-3.27138">
        <ele>45.8</ele>
        <time>2018-01-31T13:24:13Z</time>
      </trkpt>
      <trkpt lat="47.80587" lon="-3.2711">
        <ele>45.8</ele>
        <time>2018-01-31T13:24:32Z</time>
      </trkpt>
      <trkpt lat="47.80586" lon="-3.27097">
        <ele>45.32</ele>
        <time>2018-01-31T13:24:41Z</time>
      </trkpt>
      <trkpt lat="47.80583" lon="-3.2707">
        <ele>45.32</ele>
        <time>2018-01-31T13:25:00Z</time>
      </trkpt>
      <trkpt lat="47.80582" lon="-3.27042">
        <ele>46.28</ele>
        <time>2018-01-31T13:25:19Z</time>
      </trkpt>
      <trkpt lat="47.80581" lon="-3.27019">
        <ele>45.32</ele>
        <time>2018-01-31T13:25:38Z</time>
      </trkpt>
      <trkpt lat="47.80581" lon="-3.26999">
        <ele>44.84</ele>
        <time>2018-01-31T13:25:54Z</time>
      </trkpt>
      <trkpt lat="47.80582" lon="-3.26991">
        <ele>44.36</ele>
        <time>2018-01-31T13:26:01Z</time>
      </trkpt>
      <trkpt lat="47.80585" lon="-3.26966">
        <ele>43.88</ele>
        <time>2018-01-31T13:26:19Z</time>
      </trkpt>
      <trkpt lat="47.80583" lon="-3.26943">
        <ele>43.4</ele>
        <time>2018-01-31T13:26:36Z</time>
      </trkpt>
      <trkpt lat="47.80585" lon="-3.26931">
        <ele>42.92</ele>
        <time>2018-01-31T13:26:51Z</time>
      </trkpt>
      <trkpt lat="47.80576" lon="-3.26906">
        <ele>41.95</ele>
        <time>2018-01-31T13:27:09Z</time>
      </trkpt>
      <trkpt lat="47.80574" lon="-3.2689">
        <ele>40.99</ele>
        <time>2018-01-31T13:27:25Z</time>
      </trkpt>
      <trkpt lat="47.8058" lon="-3.26872">
        <ele>38.59</ele>
        <time>2018-01-31T13:27:42Z</time>
      </trkpt>
      <trkpt lat="47.80589" lon="-3.26858">
        <ele>37.63</ele>
        <time>2018-01-31T13:27:59Z</time>
      </trkpt>
      <trkpt lat="47.806" lon="-3.26845">
        <ele>36.67</ele>
        <time>2018-01-31T13:28:16Z</time>
      </trkpt>
      <trkpt lat="47.80616" lon="-3.26832">
        <ele>35.71</ele>
        <time>2018-01-31T13:28:35Z</time>
      </trkpt>
      <trkpt lat="47.80621" lon="-3.26812">
        <ele>33.78</ele>
        <time>2018-01-31T13:28:50Z</time>
      </trkpt>
      <trkpt lat="47.80615" lon="-3.26792">
        <ele>33.78</ele>
        <time>2018-01-31T13:29:06Z</time>
      </trkpt>
      <trkpt lat="47.80617" lon="-3.26787">
        <ele>34.26</ele>
        <time>2018-01-31T13:29:12Z</time>
      </trkpt>
      <trkpt lat="47.80631" lon="-3.26768">
        <ele>33.3</ele>
        <time>2018-01-31T13:29:31Z</time>
      </trkpt>
      <trkpt lat="47.80631" lon="-3.26767">
        <ele>33.78</ele>
        <time>2018-01-31T13:29:32Z</time>
      </trkpt>
      <trkpt lat="47.80635" lon="-3.26758">
        <ele>34.26</ele>
        <time>2018-01-31T13:29:39Z</time>
      </trkpt>
      <trkpt lat="47.80636" lon="-3.26752">
        <ele>34.26</ele>
        <time>2018-01-31T13:29:43Z</time>
      </trkpt>
      <trkpt lat="47.80637" lon="-3.26729">
        <ele>34.74</ele>
        <time>2018-01-31T13:29:59Z</time>
      </trkpt>
      <trkpt lat="47.80646" lon="-3.26704">
        <ele>35.23</ele>
        <time>2018-01-31T13:30:16Z</time>
      </trkpt>
      <trkpt lat="47.80651" lon="-3.26688">
        <ele>35.23</ele>
        <time>2018-01-31T13:30:30Z</time>
      </trkpt>
      <trkpt lat="47.80655" lon="-3.26668">
        <ele>35.23</ele>
        <time>2018-01-31T13:30:45Z</time>
      </trkpt>
      <trkpt lat="47.80658" lon="-3.26647">
        <ele>35.71</ele>
        <time>2018-01-31T13:31:03Z</time>
      </trkpt>
      <trkpt lat="47.80665" lon="-3.26633">
        <ele>35.71</ele>
        <time>2018-01-31T13:31:16Z</time>
      </trkpt>
      <trkpt lat="47.80672" lon="-3.26614">
        <ele>35.23</ele>
        <time>2018-01-31T13:31:34Z</time>
      </trkpt>
      <trkpt lat="47.80675" lon="-3.26602">
        <ele>36.19</ele>
        <time>2018-01-31T13:31:41Z</time>
      </trkpt>
      <trkpt lat="47.80672" lon="-3.26589">
        <ele>36.19</ele>
        <time>2018-01-31T13:31:52Z</time>
      </trkpt>
      <trkpt lat="47.80669" lon="-3.26559">
        <ele>36.19</ele>
        <time>2018-01-31T13:32:10Z</time>
      </trkpt>
      <trkpt lat="47.80673" lon="-3.26538">
        <ele>36.67</ele>
        <time>2018-01-31T13:32:26Z</time>
      </trkpt>
      <trkpt lat="47.80671" lon="-3.26516">
        <ele>37.15</ele>
        <time>2018-01-31T13:32:42Z</time>
      </trkpt>
      <trkpt lat="47.80672" lon="-3.26509">
        <ele>36.67</ele>
        <time>2018-01-31T13:32:48Z</time>
      </trkpt>
      <trkpt lat="47.80676" lon="-3.26488">
        <ele>36.67</ele>
        <time>2018-01-31T13:33:04Z</time>
      </trkpt>
      <trkpt lat="47.80675" lon="-3.26486">
        <ele>36.67</ele>
        <time>2018-01-31T13:33:05Z</time>
      </trkpt>
      <trkpt lat="47.80678" lon="-3.26466">
        <ele>37.63</ele>
        <time>2018-01-31T13:33:20Z</time>
      </trkpt>
      <trkpt lat="47.80686" lon="-3.2646">
        <ele>36.67</ele>
        <time>2018-01-31T13:33:36Z</time>
      </trkpt>
      <trkpt lat="47.80686" lon="-3.26459">
        <ele>36.67</ele>
        <time>2018-01-31T13:33:37Z</time>
      </trkpt>
      <trkpt lat="47.80694" lon="-3.26465">
        <ele>38.11</ele>
        <time>2018-01-31T13:33:53Z</time>
      </trkpt>
      <trkpt lat="47.80696" lon="-3.26465">
        <ele>37.15</ele>
        <time>2018-01-31T13:33:55Z</time>
      </trkpt>
      <trkpt lat="47.80709" lon="-3.26462">
        <ele>40.03</ele>
        <time>2018-01-31T13:34:12Z</time>
      </trkpt>
      <trkpt lat="47.80715" lon="-3.26446">
        <ele>39.55</ele>
        <time>2018-01-31T13:34:27Z</time>
      </trkpt>
      <trkpt lat="47.80716" lon="-3.2644">
        <ele>40.03</ele>
        <time>2018-01-31T13:34:39Z</time>
      </trkpt>
      <trkpt lat="47.80724" lon="-3.26434">
        <ele>39.55</ele>
        <time>2018-01-31T13:34:53Z</time>
      </trkpt>
      <trkpt lat="47.80735" lon="-3.26434">
        <ele>40.03</ele>
        <time>2018-01-31T13:35:09Z</time>
      </trkpt>
      <trkpt lat="47.80746" lon="-3.26438">
        <ele>42.92</ele>
        <time>2018-01-31T13:35:23Z</time>
      </trkpt>
      <trkpt lat="47.80756" lon="-3.26435">
        <ele>45.32</ele>
        <time>2018-01-31T13:35:38Z</time>
      </trkpt>
      <trkpt lat="47.80769" lon="-3.2644">
        <ele>46.28</ele>
        <time>2018-01-31T13:35:54Z</time>
      </trkpt>
      <trkpt lat="47.80777" lon="-3.26442">
        <ele>48.2</ele>
        <time>2018-01-31T13:36:10Z</time>
      </trkpt>
      <trkpt lat="47.80791" lon="-3.26444">
        <ele>49.65</ele>
        <time>2018-01-31T13:36:28Z</time>
      </trkpt>
      <trkpt lat="47.80798" lon="-3.26452">
        <ele>50.13</ele>
        <time>2018-01-31T13:36:43Z</time>
      </trkpt>
      <trkpt lat="47.80809" lon="-3.26459">
        <ele>52.53</ele>
        <time>2018-01-31T13:37:00Z</time>
      </trkpt>
      <trkpt lat="47.8082" lon="-3.26466">
        <ele>53.01</ele>
        <time>2018-01-31T13:37:17Z</time>
      </trkpt>
      <trkpt lat="47.80831" lon="-3.26468">
        <ele>54.45</ele>
        <time>2018-01-31T13:37:34Z</time>
      </trkpt>
      <trkpt lat="47.80845" lon="-3.2647">
        <ele>54.93</ele>
        <time>2018-01-31T13:37:53Z</time>
      </trkpt>
      <trkpt lat="47.80858" lon="-3.26456">
        <ele>55.89</ele>
        <time>2018-01-31T13:38:10Z</time>
      </trkpt>
      <trkpt lat="47.80869" lon="-3.26448">
        <ele>55.89</ele>
        <time>2018-01-31T13:38:25Z</time>
      </trkpt>
      <trkpt lat="47.80884" lon="-3.26445">
        <ele>54.93</ele>
        <time>2018-01-31T13:38:42Z</time>
      </trkpt>
      <trkpt lat="47.80884" lon="-3.26441">
        <ele>55.89</ele>
        <time>2018-01-31T13:38:55Z</time>
      </trkpt>
      <trkpt lat="47.80885" lon="-3.2644">
        <ele>56.37</ele>
        <time>2018-01-31T13:39:18Z</time>
      </trkpt>
      <trkpt lat="47.80885" lon="-3.26439">
        <ele>54.93</ele>
        <time>2018-01-31T13:39:45Z</time>
      </trkpt>
      <trkpt lat="47.80891" lon="-3.26445">
        <ele>56.86</ele>
        <time>2018-01-31T13:40:04Z</time>
      </trkpt>
      <trkpt lat="47.80908" lon="-3.26434">
        <ele>55.41</ele>
        <time>2018-01-31T13:40:21Z</time>
      </trkpt>
      <trkpt lat="47.80912" lon="-3.26431">
        <ele>54.45</ele>
        <time>2018-01-31T13:40:25Z</time>
      </trkpt>
      <trkpt lat="47.80924" lon="-3.26418">
        <ele>54.93</ele>
        <time>2018-01-31T13:40:40Z</time>
      </trkpt>
      <trkpt lat="47.80939" lon="-3.26408">
        <ele>54.45</ele>
        <time>2018-01-31T13:40:56Z</time>
      </trkpt>
      <trkpt lat="47.80942" lon="-3.26406">
        <ele>54.45</ele>
        <time>2018-01-31T13:40:59Z</time>
      </trkpt>
      <trkpt lat="47.80945" lon="-3.26408">
        <ele>55.41</ele>
        <time>2018-01-31T13:41:02Z</time>
      </trkpt>
      <trkpt lat="47.80956" lon="-3.26416">
        <ele>54.45</ele>
        <time>2018-01-31T13:41:18Z</time>
      </trkpt>
      <trkpt lat="47.80957" lon="-3.26416">
        <ele>54.45</ele>
        <time>2018-01-31T13:41:20Z</time>
      </trkpt>
      <trkpt lat="47.80963" lon="-3.2644">
        <ele>54.93</ele>
        <time>2018-01-31T13:41:36Z</time>
      </trkpt>
      <trkpt lat="47.80964" lon="-3.26461">
        <ele>55.89</ele>
        <time>2018-01-31T13:41:51Z</time>
      </trkpt>
      <trkpt lat="47.80964" lon="-3.26466">
        <ele>55.89</ele>
        <time>2018-01-31T13:41:56Z</time>
      </trkpt>
      <trkpt lat="47.80963" lon="-3.26469">
        <ele>56.37</ele>
        <time>2018-01-31T13:42:01Z</time>
      </trkpt>
      <trkpt lat="47.80969" lon="-3.26485">
        <ele>56.86</ele>
        <time>2018-01-31T13:42:13Z</time>
      </trkpt>
      <trkpt lat="47.80965" lon="-3.26487">
        <ele>56.86</ele>
        <time>2018-01-31T13:42:18Z</time>
      </trkpt>
      <trkpt lat="47.80952" lon="-3.26498">
        <ele>58.3</ele>
        <time>2018-01-31T13:42:34Z</time>
      </trkpt>
      <trkpt lat="47.80947" lon="-3.26509">
        <ele>58.78</ele>
        <time>2018-01-31T13:42:45Z</time>
      </trkpt>
      <trkpt lat="47.80956" lon="-3.26521">
        <ele>57.82</ele>
        <time>2018-01-31T13:42:58Z</time>
      </trkpt>
      <trkpt lat="47.8096" lon="-3.26528">
        <ele>56.37</ele>
        <time>2018-01-31T13:43:05Z</time>
      </trkpt>
      <trkpt lat="47.80959" lon="-3.26548">
        <ele>57.34</ele>
        <time>2018-01-31T13:43:20Z</time>
      </trkpt>
      <trkpt lat="47.8096" lon="-3.26549">
        <ele>56.86</ele>
        <time>2018-01-31T13:43:28Z</time>
      </trkpt>
      <trkpt lat="47.80957" lon="-3.26555">
        <ele>56.86</ele>
        <time>2018-01-31T13:43:33Z</time>
      </trkpt>
      <trkpt lat="47.80953" lon="-3.26579">
        <ele>57.82</ele>
        <time>2018-01-31T13:43:50Z</time>
      </trkpt>
      <trkpt lat="47.80956" lon="-3.26596">
        <ele>57.34</ele>
        <time>2018-01-31T13:44:01Z</time>
      </trkpt>
      <trkpt lat="47.80964" lon="-3.26602">
        <ele>56.86</ele>
        <time>2018-01-31T13:44:14Z</time>
      </trkpt>
      <trkpt lat="47.80972" lon="-3.26608">
        <ele>57.34</ele>
        <time>2018-01-31T13:44:29Z</time>
      </trkpt>
      <trkpt lat="47.80974" lon="-3.26608">
        <ele>57.34</ele>
        <time>2018-01-31T13:44:32Z</time>
      </trkpt>
      <trkpt lat="47.80988" lon="-3.26617">
        <ele>57.34</ele>
        <time>2018-01-31T13:44:48Z</time>
      </trkpt>
      <trkpt lat="47.80992" lon="-3.26619">
        <ele>56.86</ele>
        <time>2018-01-31T13:44:52Z</time>
      </trkpt>
      <trkpt lat="47.80999" lon="-3.26618">
        <ele>56.86</ele>
        <time>2018-01-31T13:44:58Z</time>
      </trkpt>
      <trkpt lat="47.81011" lon="-3.26593">
        <ele>57.34</ele>
        <time>2018-01-31T13:45:14Z</time>
      </trkpt>
      <trkpt lat="47.81014" lon="-3.26593">
        <ele>57.34</ele>
        <time>2018-01-31T13:45:27Z</time>
      </trkpt>
      <trkpt lat="47.81022" lon="-3.26585">
        <ele>57.82</ele>
        <time>2018-01-31T13:45:40Z</time>
      </trkpt>
      <trkpt lat="47.81023" lon="-3.26584">
        <ele>57.34</ele>
        <time>2018-01-31T13:45:41Z</time>
      </trkpt>
      <trkpt lat="47.81026" lon="-3.26579">
        <ele>57.34</ele>
        <time>2018-01-31T13:45:46Z</time>
      </trkpt>
      <trkpt lat="47.81033" lon="-3.26562">
        <ele>56.37</ele>
        <time>2018-01-31T13:46:00Z</time>
      </trkpt>
      <trkpt lat="47.81035" lon="-3.26556">
        <ele>55.89</ele>
        <time>2018-01-31T13:46:05Z</time>
      </trkpt>
      <trkpt lat="47.81036" lon="-3.2655">
        <ele>56.37</ele>
        <time>2018-01-31T13:46:20Z</time>
      </trkpt>
      <trkpt lat="47.81039" lon="-3.2655">
        <ele>56.86</ele>
        <time>2018-01-31T13:46:34Z</time>
      </trkpt>
      <trkpt lat="47.81042" lon="-3.26552">
        <ele>59.26</ele>
        <time>2018-01-31T13:46:43Z</time>
      </trkpt>
      <trkpt lat="47.81054" lon="-3.2656">
        <ele>60.7</ele>
        <time>2018-01-31T13:46:56Z</time>
      </trkpt>
      <trkpt lat="47.81059" lon="-3.26563">
        <ele>58.78</ele>
        <time>2018-01-31T13:47:02Z</time>
      </trkpt>
      <trkpt lat="47.81073" lon="-3.26568">
        <ele>59.26</ele>
        <time>2018-01-31T13:47:17Z</time>
      </trkpt>
      <trkpt lat="47.81088" lon="-3.26566">
        <ele>60.7</ele>
        <time>2018-01-31T13:47:32Z</time>
      </trkpt>
      <trkpt lat="47.81095" lon="-3.26561">
        <ele>58.78</ele>
        <time>2018-01-31T13:47:36Z</time>
      </trkpt>
      <trkpt lat="47.81099" lon="-3.26554">
        <ele>59.74</ele>
        <time>2018-01-31T13:47:48Z</time>
      </trkpt>
      <trkpt lat="47.811" lon="-3.2655">
        <ele>60.7</ele>
        <time>2018-01-31T13:48:02Z</time>
      </trkpt>
      <trkpt lat="47.81109" lon="-3.26552">
        <ele>61.66</ele>
        <time>2018-01-31T13:48:12Z</time>
      </trkpt>
      <trkpt lat="47.81122" lon="-3.26565">
        <ele>63.1</ele>
        <time>2018-01-31T13:48:28Z</time>
      </trkpt>
      <trkpt lat="47.81125" lon="-3.26569">
        <ele>62.62</ele>
        <time>2018-01-31T13:48:32Z</time>
      </trkpt>
      <trkpt lat="47.81134" lon="-3.26569">
        <ele>63.1</ele>
        <time>2018-01-31T13:48:40Z</time>
      </trkpt>
      <trkpt lat="47.81139" lon="-3.26562">
        <ele>64.07</ele>
        <time>2018-01-31T13:48:45Z</time>
      </trkpt>
      <trkpt lat="47.81143" lon="-3.26556">
        <ele>64.55</ele>
        <time>2018-01-31T13:48:51Z</time>
      </trkpt>
      <trkpt lat="47.81147" lon="-3.26558">
        <ele>64.55</ele>
        <time>2018-01-31T13:48:55Z</time>
      </trkpt>
      <trkpt lat="47.81153" lon="-3.26567">
        <ele>66.47</ele>
        <time>2018-01-31T13:49:03Z</time>
      </trkpt>
      <trkpt lat="47.81167" lon="-3.26581">
        <ele>66.47</ele>
        <time>2018-01-31T13:49:17Z</time>
      </trkpt>
      <trkpt lat="47.81174" lon="-3.26585">
        <ele>66.47</ele>
        <time>2018-01-31T13:49:24Z</time>
      </trkpt>
      <trkpt lat="47.81181" lon="-3.26582">
        <ele>66.95</ele>
        <time>2018-01-31T13:49:29Z</time>
      </trkpt>
      <trkpt lat="47.81186" lon="-3.26577">
        <ele>68.39</ele>
        <time>2018-01-31T13:49:33Z</time>
      </trkpt>
      <trkpt lat="47.81193" lon="-3.26555">
        <ele>67.43</ele>
        <time>2018-01-31T13:49:47Z</time>
      </trkpt>
      <trkpt lat="47.812" lon="-3.2654">
        <ele>68.39</ele>
        <time>2018-01-31T13:50:00Z</time>
      </trkpt>
      <trkpt lat="47.81207" lon="-3.26533">
        <ele>69.35</ele>
        <time>2018-01-31T13:50:09Z</time>
      </trkpt>
      <trkpt lat="47.8121" lon="-3.26533">
        <ele>68.87</ele>
        <time>2018-01-31T13:50:12Z</time>
      </trkpt>
      <trkpt lat="47.81221" lon="-3.2654">
        <ele>69.83</ele>
        <time>2018-01-31T13:50:25Z</time>
      </trkpt>
      <trkpt lat="47.81233" lon="-3.26552">
        <ele>71.27</ele>
        <time>2018-01-31T13:50:40Z</time>
      </trkpt>
      <trkpt lat="47.81244" lon="-3.2657">
        <ele>69.83</ele>
        <time>2018-01-31T13:50:56Z</time>
      </trkpt>
      <trkpt lat="47.81248" lon="-3.26572">
        <ele>69.83</ele>
        <time>2018-01-31T13:51:07Z</time>
      </trkpt>
      <trkpt lat="47.81249" lon="-3.26576">
        <ele>69.83</ele>
        <time>2018-01-31T13:51:16Z</time>
      </trkpt>
      <trkpt lat="47.81253" lon="-3.2659">
        <ele>68.87</ele>
        <time>2018-01-31T13:51:25Z</time>
      </trkpt>
      <trkpt lat="47.81254" lon="-3.26592">
        <ele>68.39</ele>
        <time>2018-01-31T13:51:27Z</time>
      </trkpt>
      <trkpt lat="47.81255" lon="-3.26595">
        <ele>67.43</ele>
        <time>2018-01-31T13:51:29Z</time>
      </trkpt>
      <trkpt lat="47.81269" lon="-3.26608">
        <ele>67.91</ele>
        <time>2018-01-31T13:51:46Z</time>
      </trkpt>
      <trkpt lat="47.81284" lon="-3.26621">
        <ele>68.39</ele>
        <time>2018-01-31T13:52:03Z</time>
      </trkpt>
      <trkpt lat="47.81294" lon="-3.26632">
        <ele>68.87</ele>
        <time>2018-01-31T13:52:18Z</time>
      </trkpt>
      <trkpt lat="47.81309" lon="-3.26648">
        <ele>68.39</ele>
        <time>2018-01-31T13:52:35Z</time>
      </trkpt>
      <trkpt lat="47.81319" lon="-3.26656">
        <ele>67.43</ele>
        <time>2018-01-31T13:52:50Z</time>
      </trkpt>
      <trkpt lat="47.81326" lon="-3.26663">
        <ele>67.43</ele>
        <time>2018-01-31T13:53:01Z</time>
      </trkpt>
      <trkpt lat="47.81338" lon="-3.26671">
        <ele>66.95</ele>
        <time>2018-01-31T13:53:17Z</time>
      </trkpt>
      <trkpt lat="47.81337" lon="-3.26666">
        <ele>67.43</ele>
        <time>2018-01-31T13:53:26Z</time>
      </trkpt>
      <trkpt lat="47.81324" lon="-3.26657">
        <ele>67.91</ele>
        <time>2018-01-31T13:53:41Z</time>
      </trkpt>
      <trkpt lat="47.81318" lon="-3.26656">
        <ele>67.91</ele>
        <time>2018-01-31T13:53:54Z</time>
      </trkpt>
      <trkpt lat="47.81311" lon="-3.26672">
        <ele>65.99</ele>
        <time>2018-01-31T13:54:06Z</time>
      </trkpt>
      <trkpt lat="47.81302" lon="-3.26692">
        <ele>65.51</ele>
        <time>2018-01-31T13:54:22Z</time>
      </trkpt>
      <trkpt lat="47.81297" lon="-3.26712">
        <ele>64.07</ele>
        <time>2018-01-31T13:54:37Z</time>
      </trkpt>
      <trkpt lat="47.81288" lon="-3.26733">
        <ele>62.14</ele>
        <time>2018-01-31T13:54:55Z</time>
      </trkpt>
      <trkpt lat="47.81287" lon="-3.26741">
        <ele>61.66</ele>
        <time>2018-01-31T13:55:02Z</time>
      </trkpt>
      <trkpt lat="47.81304" lon="-3.26751">
        <ele>61.66</ele>
        <time>2018-01-31T13:55:21Z</time>
      </trkpt>
      <trkpt lat="47.81318" lon="-3.26758">
        <ele>62.14</ele>
        <time>2018-01-31T13:55:37Z</time>
      </trkpt>
      <trkpt lat="47.81336" lon="-3.26763">
        <ele>64.07</ele>
        <time>2018-01-31T13:55:55Z</time>
      </trkpt>
      <trkpt lat="47.81355" lon="-3.26775">
        <ele>63.1</ele>
        <time>2018-01-31T13:56:14Z</time>
      </trkpt>
      <trkpt lat="47.8137" lon="-3.2678">
        <ele>64.55</ele>
        <time>2018-01-31T13:56:31Z</time>
      </trkpt>
      <trkpt lat="47.81374" lon="-3.26782">
        <ele>63.58</ele>
        <time>2018-01-31T13:56:37Z</time>
      </trkpt>
      <trkpt lat="47.81382" lon="-3.26784">
        <ele>64.55</ele>
        <time>2018-01-31T13:56:46Z</time>
      </trkpt>
      <trkpt lat="47.81385" lon="-3.26786">
        <ele>64.55</ele>
        <time>2018-01-31T13:56:52Z</time>
      </trkpt>
      <trkpt lat="47.81393" lon="-3.26785">
        <ele>65.03</ele>
        <time>2018-01-31T13:57:12Z</time>
      </trkpt>
      <trkpt lat="47.81395" lon="-3.26781">
        <ele>65.51</ele>
        <time>2018-01-31T13:57:27Z</time>
      </trkpt>
      <trkpt lat="47.81398" lon="-3.26775">
        <ele>65.51</ele>
        <time>2018-01-31T13:57:33Z</time>
      </trkpt>
      <trkpt lat="47.81403" lon="-3.2677">
        <ele>65.03</ele>
        <time>2018-01-31T13:57:42Z</time>
      </trkpt>
      <trkpt lat="47.81411" lon="-3.26764">
        <ele>67.43</ele>
        <time>2018-01-31T13:57:52Z</time>
      </trkpt>
      <trkpt lat="47.81421" lon="-3.26748">
        <ele>67.91</ele>
        <time>2018-01-31T13:58:08Z</time>
      </trkpt>
      <trkpt lat="47.81431" lon="-3.26729">
        <ele>68.39</ele>
        <time>2018-01-31T13:58:26Z</time>
      </trkpt>
      <trkpt lat="47.81441" lon="-3.26712">
        <ele>69.35</ele>
        <time>2018-01-31T13:58:42Z</time>
      </trkpt>
      <trkpt lat="47.81444" lon="-3.26704">
        <ele>70.31</ele>
        <time>2018-01-31T13:58:48Z</time>
      </trkpt>
      <trkpt lat="47.81453" lon="-3.26685">
        <ele>70.31</ele>
        <time>2018-01-31T13:59:04Z</time>
      </trkpt>
      <trkpt lat="47.81455" lon="-3.26681">
        <ele>70.31</ele>
        <time>2018-01-31T13:59:09Z</time>
      </trkpt>
      <trkpt lat="47.81462" lon="-3.26665">
        <ele>71.27</ele>
        <time>2018-01-31T13:59:23Z</time>
      </trkpt>
      <trkpt lat="47.81466" lon="-3.26647">
        <ele>71.76</ele>
        <time>2018-01-31T13:59:36Z</time>
      </trkpt>
      <trkpt lat="47.81468" lon="-3.2664">
        <ele>71.76</ele>
        <time>2018-01-31T13:59:42Z</time>
      </trkpt>
      <trkpt lat="47.81473" lon="-3.26622">
        <ele>72.24</ele>
        <time>2018-01-31T13:59:55Z</time>
      </trkpt>
      <trkpt lat="47.81486" lon="-3.2661">
        <ele>72.24</ele>
        <time>2018-01-31T14:00:12Z</time>
      </trkpt>
      <trkpt lat="47.81488" lon="-3.26609">
        <ele>72.72</ele>
        <time>2018-01-31T14:00:15Z</time>
      </trkpt>
      <trkpt lat="47.81491" lon="-3.26607">
        <ele>73.2</ele>
        <time>2018-01-31T14:00:21Z</time>
      </trkpt>
      <trkpt lat="47.815" lon="-3.26615">
        <ele>73.68</ele>
        <time>2018-01-31T14:00:33Z</time>
      </trkpt>
      <trkpt lat="47.81512" lon="-3.26624">
        <ele>73.2</ele>
        <time>2018-01-31T14:00:49Z</time>
      </trkpt>
      <trkpt lat="47.81518" lon="-3.26626">
        <ele>73.68</ele>
        <time>2018-01-31T14:00:56Z</time>
      </trkpt>
      <trkpt lat="47.81529" lon="-3.26633">
        <ele>74.16</ele>
        <time>2018-01-31T14:01:10Z</time>
      </trkpt>
      <trkpt lat="47.81541" lon="-3.26642">
        <ele>74.16</ele>
        <time>2018-01-31T14:01:25Z</time>
      </trkpt>
      <trkpt lat="47.81554" lon="-3.2665">
        <ele>74.64</ele>
        <time>2018-01-31T14:01:41Z</time>
      </trkpt>
      <trkpt lat="47.81566" lon="-3.26641">
        <ele>75.6</ele>
        <time>2018-01-31T14:01:56Z</time>
      </trkpt>
      <trkpt lat="47.8158" lon="-3.26649">
        <ele>75.6</ele>
        <time>2018-01-31T14:02:14Z</time>
      </trkpt>
      <trkpt lat="47.81597" lon="-3.26651">
        <ele>76.56</ele>
        <time>2018-01-31T14:02:33Z</time>
      </trkpt>
      <trkpt lat="47.81608" lon="-3.26648">
        <ele>77.52</ele>
        <time>2018-01-31T14:02:49Z</time>
      </trkpt>
      <trkpt lat="47.81621" lon="-3.26642">
        <ele>79.45</ele>
        <time>2018-01-31T14:03:05Z</time>
      </trkpt>
      <trkpt lat="47.81639" lon="-3.26645">
        <ele>80.41</ele>
        <time>2018-01-31T14:03:24Z</time>
      </trkpt>
      <trkpt lat="47.81653" lon="-3.26644">
        <ele>80.89</ele>
        <time>2018-01-31T14:03:43Z</time>
      </trkpt>
      <trkpt lat="47.81657" lon="-3.26643">
        <ele>80.89</ele>
        <time>2018-01-31T14:03:46Z</time>
      </trkpt>
      <trkpt lat="47.8167" lon="-3.26634">
        <ele>81.37</ele>
        <time>2018-01-31T14:04:01Z</time>
      </trkpt>
      <trkpt lat="47.81689" lon="-3.26625">
        <ele>80.89</ele>
        <time>2018-01-31T14:04:18Z</time>
      </trkpt>
      <trkpt lat="47.81696" lon="-3.2663">
        <ele>80.89</ele>
        <time>2018-01-31T14:04:33Z</time>
      </trkpt>
      <trkpt lat="47.817" lon="-3.26643">
        <ele>80.89</ele>
        <time>2018-01-31T14:04:46Z</time>
      </trkpt>
      <trkpt lat="47.81707" lon="-3.26658">
        <ele>81.85</ele>
        <time>2018-01-31T14:05:03Z</time>
      </trkpt>
      <trkpt lat="47.81713" lon="-3.26668">
        <ele>81.37</ele>
        <time>2018-01-31T14:05:16Z</time>
      </trkpt>
      <trkpt lat="47.81726" lon="-3.26679">
        <ele>81.37</ele>
        <time>2018-01-31T14:05:33Z</time>
      </trkpt>
      <trkpt lat="47.81736" lon="-3.26698">
        <ele>81.37</ele>
        <time>2018-01-31T14:05:48Z</time>
      </trkpt>
      <trkpt lat="47.81747" lon="-3.2671">
        <ele>81.37</ele>
        <time>2018-01-31T14:06:04Z</time>
      </trkpt>
      <trkpt lat="47.81755" lon="-3.26719">
        <ele>81.37</ele>
        <time>2018-01-31T14:06:19Z</time>
      </trkpt>
      <trkpt lat="47.8176" lon="-3.26738">
        <ele>81.85</ele>
        <time>2018-01-31T14:06:39Z</time>
      </trkpt>
      <trkpt lat="47.81765" lon="-3.26761">
        <ele>82.33</ele>
        <time>2018-01-31T14:07:00Z</time>
      </trkpt>
      <trkpt lat="47.81767" lon="-3.26783">
        <ele>82.81</ele>
        <time>2018-01-31T14:07:17Z</time>
      </trkpt>
      <trkpt lat="47.81771" lon="-3.26799">
        <ele>82.33</ele>
        <time>2018-01-31T14:07:36Z</time>
      </trkpt>
      <trkpt lat="47.81777" lon="-3.26817">
        <ele>82.33</ele>
        <time>2018-01-31T14:07:55Z</time>
      </trkpt>
      <trkpt lat="47.81781" lon="-3.26837">
        <ele>82.81</ele>
        <time>2018-01-31T14:08:11Z</time>
      </trkpt>
      <trkpt lat="47.81784" lon="-3.26847">
        <ele>83.77</ele>
        <time>2018-01-31T14:08:17Z</time>
      </trkpt>
      <trkpt lat="47.81785" lon="-3.26854">
        <ele>83.77</ele>
        <time>2018-01-31T14:08:22Z</time>
      </trkpt>
      <trkpt lat="47.81794" lon="-3.26866">
        <ele>84.25</ele>
        <time>2018-01-31T14:08:37Z</time>
      </trkpt>
      <trkpt lat="47.81803" lon="-3.26875">
        <ele>84.25</ele>
        <time>2018-01-31T14:08:51Z</time>
      </trkpt>
      <trkpt lat="47.81813" lon="-3.26878">
        <ele>83.77</ele>
        <time>2018-01-31T14:09:04Z</time>
      </trkpt>
      <trkpt lat="47.81823" lon="-3.26893">
        <ele>84.25</ele>
        <time>2018-01-31T14:09:19Z</time>
      </trkpt>
      <trkpt lat="47.81838" lon="-3.26889">
        <ele>85.21</ele>
        <time>2018-01-31T14:09:37Z</time>
      </trkpt>
      <trkpt lat="47.8185" lon="-3.26876">
        <ele>84.73</ele>
        <time>2018-01-31T14:09:54Z</time>
      </trkpt>
      <trkpt lat="47.81863" lon="-3.2686">
        <ele>84.73</ele>
        <time>2018-01-31T14:10:12Z</time>
      </trkpt>
      <trkpt lat="47.81873" lon="-3.26842">
        <ele>84.73</ele>
        <time>2018-01-31T14:10:26Z</time>
      </trkpt>
      <trkpt lat="47.81876" lon="-3.26818">
        <ele>84.25</ele>
        <time>2018-01-31T14:10:42Z</time>
      </trkpt>
      <trkpt lat="47.81877" lon="-3.26796">
        <ele>84.25</ele>
        <time>2018-01-31T14:10:58Z</time>
      </trkpt>
      <trkpt lat="47.81876" lon="-3.26773">
        <ele>84.73</ele>
        <time>2018-01-31T14:11:16Z</time>
      </trkpt>
      <trkpt lat="47.81867" lon="-3.2676">
        <ele>83.77</ele>
        <time>2018-01-31T14:11:37Z</time>
      </trkpt>
      <trkpt lat="47.81875" lon="-3.26763">
        <ele>82.81</ele>
        <time>2018-01-31T14:11:56Z</time>
      </trkpt>
      <trkpt lat="47.81876" lon="-3.26764">
        <ele>83.29</ele>
        <time>2018-01-31T14:11:58Z</time>
      </trkpt>
      <trkpt lat="47.81884" lon="-3.26764">
        <ele>83.29</ele>
        <time>2018-01-31T14:12:05Z</time>
      </trkpt>
      <trkpt lat="47.81896" lon="-3.26765">
        <ele>82.33</ele>
        <time>2018-01-31T14:12:20Z</time>
      </trkpt>
      <trkpt lat="47.81907" lon="-3.26761">
        <ele>80.89</ele>
        <time>2018-01-31T14:12:37Z</time>
      </trkpt>
      <trkpt lat="47.81922" lon="-3.26762">
        <ele>80.41</ele>
        <time>2018-01-31T14:12:50Z</time>
      </trkpt>
      <trkpt lat="47.81925" lon="-3.26762">
        <ele>80.41</ele>
        <time>2018-01-31T14:12:53Z</time>
      </trkpt>
      <trkpt lat="47.81939" lon="-3.26764">
        <ele>80.41</ele>
        <time>2018-01-31T14:13:08Z</time>
      </trkpt>
      <trkpt lat="47.81956" lon="-3.26768">
        <ele>78.97</ele>
        <time>2018-01-31T14:13:24Z</time>
      </trkpt>
      <trkpt lat="47.81968" lon="-3.26773">
        <ele>78.97</ele>
        <time>2018-01-31T14:13:40Z</time>
      </trkpt>
      <trkpt lat="47.81965" lon="-3.2679">
        <ele>79.45</ele>
        <time>2018-01-31T14:13:58Z</time>
      </trkpt>
      <trkpt lat="47.81968" lon="-3.26807">
        <ele>79.45</ele>
        <time>2018-01-31T14:14:14Z</time>
      </trkpt>
      <trkpt lat="47.81969" lon="-3.26828">
        <ele>79.45</ele>
        <time>2018-01-31T14:14:28Z</time>
      </trkpt>
      <trkpt lat="47.81967" lon="-3.26853">
        <ele>79.45</ele>
        <time>2018-01-31T14:14:46Z</time>
      </trkpt>
      <trkpt lat="47.81969" lon="-3.26872">
        <ele>79.45</ele>
        <time>2018-01-31T14:14:56Z</time>
      </trkpt>
      <trkpt lat="47.81969" lon="-3.26892">
        <ele>78.97</ele>
        <time>2018-01-31T14:15:11Z</time>
      </trkpt>
      <trkpt lat="47.81969" lon="-3.26913">
        <ele>78.48</ele>
        <time>2018-01-31T14:15:26Z</time>
      </trkpt>
      <trkpt lat="47.81962" lon="-3.26935">
        <ele>78.97</ele>
        <time>2018-01-31T14:15:43Z</time>
      </trkpt>
      <trkpt lat="47.81962" lon="-3.26958">
        <ele>78.48</ele>
        <time>2018-01-31T14:15:59Z</time>
      </trkpt>
      <trkpt lat="47.81962" lon="-3.26973">
        <ele>78.48</ele>
        <time>2018-01-31T14:16:16Z</time>
      </trkpt>
      <trkpt lat="47.81963" lon="-3.26992">
        <ele>78</ele>
        <time>2018-01-31T14:16:35Z</time>
      </trkpt>
      <trkpt lat="47.81961" lon="-3.27009">
        <ele>77.52</ele>
        <time>2018-01-31T14:16:55Z</time>
      </trkpt>
      <trkpt lat="47.81962" lon="-3.27035">
        <ele>77.04</ele>
        <time>2018-01-31T14:17:14Z</time>
      </trkpt>
      <trkpt lat="47.81961" lon="-3.27055">
        <ele>76.56</ele>
        <time>2018-01-31T14:17:30Z</time>
      </trkpt>
      <trkpt lat="47.81961" lon="-3.27069">
        <ele>76.08</ele>
        <time>2018-01-31T14:17:40Z</time>
      </trkpt>
      <trkpt lat="47.81967" lon="-3.27088">
        <ele>75.6</ele>
        <time>2018-01-31T14:17:57Z</time>
      </trkpt>
      <trkpt lat="47.81971" lon="-3.27105">
        <ele>74.16</ele>
        <time>2018-01-31T14:18:15Z</time>
      </trkpt>
      <trkpt lat="47.81979" lon="-3.27125">
        <ele>71.76</ele>
        <time>2018-01-31T14:18:35Z</time>
      </trkpt>
      <trkpt lat="47.81985" lon="-3.27139">
        <ele>71.27</ele>
        <time>2018-01-31T14:18:50Z</time>
      </trkpt>
      <trkpt lat="47.81992" lon="-3.27158">
        <ele>69.83</ele>
        <time>2018-01-31T14:19:09Z</time>
      </trkpt>
      <trkpt lat="47.82" lon="-3.27178">
        <ele>68.39</ele>
        <time>2018-01-31T14:19:27Z</time>
      </trkpt>
      <trkpt lat="47.82005" lon="-3.2719">
        <ele>67.43</ele>
        <time>2018-01-31T14:19:44Z</time>
      </trkpt>
      <trkpt lat="47.82014" lon="-3.27199">
        <ele>65.99</ele>
        <time>2018-01-31T14:20:03Z</time>
      </trkpt>
      <trkpt lat="47.82015" lon="-3.27208">
        <ele>64.55</ele>
        <time>2018-01-31T14:20:18Z</time>
      </trkpt>
      <trkpt lat="47.82016" lon="-3.27219">
        <ele>65.03</ele>
        <time>2018-01-31T14:20:34Z</time>
      </trkpt>
      <trkpt lat="47.82016" lon="-3.27233">
        <ele>64.07</ele>
        <time>2018-01-31T14:20:51Z</time>
      </trkpt>
      <trkpt lat="47.82018" lon="-3.27259">
        <ele>63.58</ele>
        <time>2018-01-31T14:21:09Z</time>
      </trkpt>
      <trkpt lat="47.82018" lon="-3.27269">
        <ele>65.51</ele>
        <time>2018-01-31T14:21:17Z</time>
      </trkpt>
      <trkpt lat="47.82015" lon="-3.27279">
        <ele>64.55</ele>
        <time>2018-01-31T14:21:30Z</time>
      </trkpt>
      <trkpt lat="47.82018" lon="-3.27297">
        <ele>65.99</ele>
        <time>2018-01-31T14:21:44Z</time>
      </trkpt>
      <trkpt lat="47.82025" lon="-3.27325">
        <ele>65.99</ele>
        <time>2018-01-31T14:21:59Z</time>
      </trkpt>
      <trkpt lat="47.82024" lon="-3.27328">
        <ele>65.99</ele>
        <time>2018-01-31T14:22:13Z</time>
      </trkpt>
      <trkpt lat="47.82023" lon="-3.27347">
        <ele>67.43</ele>
        <time>2018-01-31T14:22:31Z</time>
      </trkpt>
      <trkpt lat="47.82028" lon="-3.27364">
        <ele>67.43</ele>
        <time>2018-01-31T14:22:46Z</time>
      </trkpt>
      <trkpt lat="47.82031" lon="-3.27375">
        <ele>67.91</ele>
        <time>2018-01-31T14:23:00Z</time>
      </trkpt>
      <trkpt lat="47.82033" lon="-3.2739">
        <ele>67.91</ele>
        <time>2018-01-31T14:23:14Z</time>
      </trkpt>
      <trkpt lat="47.82039" lon="-3.27407">
        <ele>67.43</ele>
        <time>2018-01-31T14:23:28Z</time>
      </trkpt>
      <trkpt lat="47.82044" lon="-3.27426">
        <ele>65.99</ele>
        <time>2018-01-31T14:23:45Z</time>
      </trkpt>
      <trkpt lat="47.8205" lon="-3.2744">
        <ele>64.55</ele>
        <time>2018-01-31T14:24:01Z</time>
      </trkpt>
      <trkpt lat="47.82055" lon="-3.27458">
        <ele>64.07</ele>
        <time>2018-01-31T14:24:17Z</time>
      </trkpt>
      <trkpt lat="47.82057" lon="-3.27464">
        <ele>47.72</ele>
        <time>2018-01-31T14:24:29Z</time>
      </trkpt>
      <trkpt lat="47.82057" lon="-3.27464">
        <ele>65.51</ele>
        <time>2018-01-31T14:24:30Z</time>
      </trkpt>
      <trkpt lat="47.82057" lon="-3.27463">
        <ele>74.16</ele>
        <time>2018-01-31T14:24:31Z</time>
      </trkpt>
      <trkpt lat="47.82057" lon="-3.27463">
        <ele>63.58</ele>
        <time>2018-01-31T14:24:32Z</time>
      </trkpt>
      <trkpt lat="47.82058" lon="-3.27465">
        <ele>62.62</ele>
        <time>2018-01-31T14:24:34Z</time>
      </trkpt>
      <trkpt lat="47.82067" lon="-3.27462">
        <ele>62.62</ele>
        <time>2018-01-31T14:25:00Z</time>
      </trkpt>
      <trkpt lat="47.82068" lon="-3.27463">
        <ele>62.62</ele>
        <time>2018-01-31T14:25:25Z</time>
      </trkpt>
      <trkpt lat="47.82064" lon="-3.27473">
        <ele>61.18</ele>
        <time>2018-01-31T14:25:42Z</time>
      </trkpt>
      <trkpt lat="47.82057" lon="-3.27482">
        <ele>61.18</ele>
        <time>2018-01-31T14:25:55Z</time>
      </trkpt>
      <trkpt lat="47.82048" lon="-3.27491">
        <ele>61.66</ele>
        <time>2018-01-31T14:26:11Z</time>
      </trkpt>
      <trkpt lat="47.82039" lon="-3.27494">
        <ele>61.66</ele>
        <time>2018-01-31T14:26:27Z</time>
      </trkpt>
      <trkpt lat="47.82027" lon="-3.27505">
        <ele>61.66</ele>
        <time>2018-01-31T14:26:45Z</time>
      </trkpt>
      <trkpt lat="47.82012" lon="-3.27512">
        <ele>61.66</ele>
        <time>2018-01-31T14:27:04Z</time>
      </trkpt>
      <trkpt lat="47.82004" lon="-3.27522">
        <ele>61.18</ele>
        <time>2018-01-31T14:27:22Z</time>
      </trkpt>
      <trkpt lat="47.81987" lon="-3.27535">
        <ele>62.14</ele>
        <time>2018-01-31T14:27:43Z</time>
      </trkpt>
      <trkpt lat="47.81979" lon="-3.27548">
        <ele>62.14</ele>
        <time>2018-01-31T14:28:00Z</time>
      </trkpt>
      <trkpt lat="47.81969" lon="-3.27561">
        <ele>63.1</ele>
        <time>2018-01-31T14:28:19Z</time>
      </trkpt>
      <trkpt lat="47.81953" lon="-3.27571">
        <ele>63.58</ele>
        <time>2018-01-31T14:28:38Z</time>
      </trkpt>
      <trkpt lat="47.81947" lon="-3.27575">
        <ele>65.51</ele>
        <time>2018-01-31T14:28:55Z</time>
      </trkpt>
      <trkpt lat="47.81939" lon="-3.27582">
        <ele>66.47</ele>
        <time>2018-01-31T14:29:09Z</time>
      </trkpt>
      <trkpt lat="47.81929" lon="-3.27595">
        <ele>66.95</ele>
        <time>2018-01-31T14:29:28Z</time>
      </trkpt>
      <trkpt lat="47.8192" lon="-3.27606">
        <ele>68.39</ele>
        <time>2018-01-31T14:29:46Z</time>
      </trkpt>
      <trkpt lat="47.81911" lon="-3.27619">
        <ele>70.31</ele>
        <time>2018-01-31T14:30:04Z</time>
      </trkpt>
      <trkpt lat="47.81904" lon="-3.27621">
        <ele>72.24</ele>
        <time>2018-01-31T14:30:28Z</time>
      </trkpt>
      <trkpt lat="47.81897" lon="-3.27628">
        <ele>71.76</ele>
        <time>2018-01-31T14:30:45Z</time>
      </trkpt>
      <trkpt lat="47.81882" lon="-3.27638">
        <ele>73.68</ele>
        <time>2018-01-31T14:31:00Z</time>
      </trkpt>
      <trkpt lat="47.81876" lon="-3.27652">
        <ele>73.68</ele>
        <time>2018-01-31T14:31:13Z</time>
      </trkpt>
      <trkpt lat="47.81877" lon="-3.27653">
        <ele>73.68</ele>
        <time>2018-01-31T14:31:28Z</time>
      </trkpt>
      <trkpt lat="47.81871" lon="-3.2766">
        <ele>74.16</ele>
        <time>2018-01-31T14:31:42Z</time>
      </trkpt>
      <trkpt lat="47.81868" lon="-3.27672">
        <ele>73.68</ele>
        <time>2018-01-31T14:31:53Z</time>
      </trkpt>
      <trkpt lat="47.81865" lon="-3.27682">
        <ele>73.68</ele>
        <time>2018-01-31T14:32:07Z</time>
      </trkpt>
      <trkpt lat="47.81866" lon="-3.27689">
        <ele>72.24</ele>
        <time>2018-01-31T14:32:23Z</time>
      </trkpt>
      <trkpt lat="47.81865" lon="-3.277">
        <ele>71.76</ele>
        <time>2018-01-31T14:32:43Z</time>
      </trkpt>
      <trkpt lat="47.81864" lon="-3.27702">
        <ele>71.76</ele>
        <time>2018-01-31T14:32:45Z</time>
      </trkpt>
      <trkpt lat="47.81862" lon="-3.27715">
        <ele>71.76</ele>
        <time>2018-01-31T14:33:02Z</time>
      </trkpt>
      <trkpt lat="47.81862" lon="-3.27728">
        <ele>69.83</ele>
        <time>2018-01-31T14:33:20Z</time>
      </trkpt>
      <trkpt lat="47.81858" lon="-3.27743">
        <ele>68.39</ele>
        <time>2018-01-31T14:33:36Z</time>
      </trkpt>
      <trkpt lat="47.81856" lon="-3.27757">
        <ele>67.91</ele>
        <time>2018-01-31T14:33:51Z</time>
      </trkpt>
      <trkpt lat="47.81852" lon="-3.27765">
        <ele>69.35</ele>
        <time>2018-01-31T14:33:59Z</time>
      </trkpt>
      <trkpt lat="47.81844" lon="-3.2778">
        <ele>69.83</ele>
        <time>2018-01-31T14:34:14Z</time>
      </trkpt>
      <trkpt lat="47.81839" lon="-3.27787">
        <ele>70.79</ele>
        <time>2018-01-31T14:34:28Z</time>
      </trkpt>
      <trkpt lat="47.81834" lon="-3.27804">
        <ele>69.83</ele>
        <time>2018-01-31T14:34:43Z</time>
      </trkpt>
      <trkpt lat="47.81826" lon="-3.27823">
        <ele>69.83</ele>
        <time>2018-01-31T14:35:01Z</time>
      </trkpt>
      <trkpt lat="47.81825" lon="-3.27842">
        <ele>68.87</ele>
        <time>2018-01-31T14:35:17Z</time>
      </trkpt>
      <trkpt lat="47.81818" lon="-3.27856">
        <ele>67.91</ele>
        <time>2018-01-31T14:35:32Z</time>
      </trkpt>
      <trkpt lat="47.81811" lon="-3.27876">
        <ele>65.99</ele>
        <time>2018-01-31T14:35:48Z</time>
      </trkpt>
      <trkpt lat="47.81807" lon="-3.27892">
        <ele>63.58</ele>
        <time>2018-01-31T14:36:07Z</time>
      </trkpt>
      <trkpt lat="47.81804" lon="-3.27904">
        <ele>63.58</ele>
        <time>2018-01-31T14:36:28Z</time>
      </trkpt>
      <trkpt lat="47.81805" lon="-3.27906">
        <ele>63.1</ele>
        <time>2018-01-31T14:36:31Z</time>
      </trkpt>
      <trkpt lat="47.81808" lon="-3.27918">
        <ele>62.14</ele>
        <time>2018-01-31T14:36:48Z</time>
      </trkpt>
      <trkpt lat="47.818" lon="-3.27925">
        <ele>61.66</ele>
        <time>2018-01-31T14:37:02Z</time>
      </trkpt>
      <trkpt lat="47.8179" lon="-3.2793">
        <ele>62.62</ele>
        <time>2018-01-31T14:37:18Z</time>
      </trkpt>
      <trkpt lat="47.81784" lon="-3.27922">
        <ele>63.1</ele>
        <time>2018-01-31T14:37:29Z</time>
      </trkpt>
      <trkpt lat="47.81782" lon="-3.27922">
        <ele>64.07</ele>
        <time>2018-01-31T14:37:31Z</time>
      </trkpt>
      <trkpt lat="47.81771" lon="-3.27925">
        <ele>63.1</ele>
        <time>2018-01-31T14:37:46Z</time>
      </trkpt>
      <trkpt lat="47.81765" lon="-3.27928">
        <ele>62.62</ele>
        <time>2018-01-31T14:38:01Z</time>
      </trkpt>
      <trkpt lat="47.81757" lon="-3.27938">
        <ele>60.7</ele>
        <time>2018-01-31T14:38:16Z</time>
      </trkpt>
      <trkpt lat="47.81743" lon="-3.27946">
        <ele>58.78</ele>
        <time>2018-01-31T14:38:33Z</time>
      </trkpt>
      <trkpt lat="47.8173" lon="-3.27957">
        <ele>56.37</ele>
        <time>2018-01-31T14:38:50Z</time>
      </trkpt>
      <trkpt lat="47.81719" lon="-3.27967">
        <ele>54.45</ele>
        <time>2018-01-31T14:39:05Z</time>
      </trkpt>
      <trkpt lat="47.81705" lon="-3.27979">
        <ele>53.01</ele>
        <time>2018-01-31T14:39:22Z</time>
      </trkpt>
      <trkpt lat="47.81693" lon="-3.27989">
        <ele>50.13</ele>
        <time>2018-01-31T14:39:38Z</time>
      </trkpt>
      <trkpt lat="47.81678" lon="-3.28001">
        <ele>48.2</ele>
        <time>2018-01-31T14:39:53Z</time>
      </trkpt>
      <trkpt lat="47.81668" lon="-3.2801">
        <ele>46.28</ele>
        <time>2018-01-31T14:40:06Z</time>
      </trkpt>
      <trkpt lat="47.81662" lon="-3.28016">
        <ele>44.84</ele>
        <time>2018-01-31T14:40:21Z</time>
      </trkpt>
      <trkpt lat="47.81649" lon="-3.2803">
        <ele>43.88</ele>
        <time>2018-01-31T14:40:36Z</time>
      </trkpt>
      <trkpt lat="47.81632" lon="-3.28037">
        <ele>42.92</ele>
        <time>2018-01-31T14:40:53Z</time>
      </trkpt>
      <trkpt lat="47.81613" lon="-3.28043">
        <ele>42.92</ele>
        <time>2018-01-31T14:41:10Z</time>
      </trkpt>
      <trkpt lat="47.81612" lon="-3.28043">
        <ele>42.44</ele>
        <time>2018-01-31T14:41:22Z</time>
      </trkpt>
      <trkpt lat="47.8161" lon="-3.28043">
        <ele>42.44</ele>
        <time>2018-01-31T14:41:25Z</time>
      </trkpt>
      <trkpt lat="47.81593" lon="-3.28046">
        <ele>41.47</ele>
        <time>2018-01-31T14:41:42Z</time>
      </trkpt>
      <trkpt lat="47.81586" lon="-3.28048">
        <ele>41.47</ele>
        <time>2018-01-31T14:41:54Z</time>
      </trkpt>
      <trkpt lat="47.81587" lon="-3.28048">
        <ele>41.47</ele>
        <time>2018-01-31T14:41:55Z</time>
      </trkpt>
      <trkpt lat="47.81584" lon="-3.28049">
        <ele>40.51</ele>
        <time>2018-01-31T14:41:59Z</time>
      </trkpt>
      <trkpt lat="47.81563" lon="-3.28055">
        <ele>39.07</ele>
        <time>2018-01-31T14:42:18Z</time>
      </trkpt>
      <trkpt lat="47.81544" lon="-3.28058">
        <ele>37.63</ele>
        <time>2018-01-31T14:42:36Z</time>
      </trkpt>
      <trkpt lat="47.81529" lon="-3.2806">
        <ele>35.71</ele>
        <time>2018-01-31T14:42:52Z</time>
      </trkpt>
      <trkpt lat="47.81515" lon="-3.28057">
        <ele>34.26</ele>
        <time>2018-01-31T14:43:12Z</time>
      </trkpt>
      <trkpt lat="47.81498" lon="-3.28048">
        <ele>31.86</ele>
        <time>2018-01-31T14:43:31Z</time>
      </trkpt>
      <trkpt lat="47.81491" lon="-3.28045">
        <ele>30.9</ele>
        <time>2018-01-31T14:43:37Z</time>
      </trkpt>
      <trkpt lat="47.81475" lon="-3.28035">
        <ele>28.98</ele>
        <time>2018-01-31T14:43:56Z</time>
      </trkpt>
      <trkpt lat="47.81459" lon="-3.28037">
        <ele>27.53</ele>
        <time>2018-01-31T14:44:12Z</time>
      </trkpt>
      <trkpt lat="47.81458" lon="-3.28038">
        <ele>27.53</ele>
        <time>2018-01-31T14:44:13Z</time>
      </trkpt>
      <trkpt lat="47.81459" lon="-3.28054">
        <ele>27.05</ele>
        <time>2018-01-31T14:44:28Z</time>
      </trkpt>
      <trkpt lat="47.81459" lon="-3.28057">
        <ele>27.05</ele>
        <time>2018-01-31T14:44:30Z</time>
      </trkpt>
      <trkpt lat="47.81465" lon="-3.28075">
        <ele>26.57</ele>
        <time>2018-01-31T14:44:45Z</time>
      </trkpt>
      <trkpt lat="47.81478" lon="-3.28089">
        <ele>26.09</ele>
        <time>2018-01-31T14:45:02Z</time>
      </trkpt>
      <trkpt lat="47.81489" lon="-3.28104">
        <ele>25.61</ele>
        <time>2018-01-31T14:45:18Z</time>
      </trkpt>
      <trkpt lat="47.81505" lon="-3.28117">
        <ele>25.13</ele>
        <time>2018-01-31T14:45:37Z</time>
      </trkpt>
      <trkpt lat="47.81521" lon="-3.28132">
        <ele>24.65</ele>
        <time>2018-01-31T14:45:53Z</time>
      </trkpt>
      <trkpt lat="47.81534" lon="-3.28138">
        <ele>23.21</ele>
        <time>2018-01-31T14:46:08Z</time>
      </trkpt>
      <trkpt lat="47.8155" lon="-3.2815">
        <ele>23.21</ele>
        <time>2018-01-31T14:46:27Z</time>
      </trkpt>
      <trkpt lat="47.81563" lon="-3.2816">
        <ele>22.25</ele>
        <time>2018-01-31T14:46:41Z</time>
      </trkpt>
      <trkpt lat="47.81576" lon="-3.28171">
        <ele>21.29</ele>
        <time>2018-01-31T14:46:56Z</time>
      </trkpt>
      <trkpt lat="47.81588" lon="-3.28184">
        <ele>20.32</ele>
        <time>2018-01-31T14:47:11Z</time>
      </trkpt>
      <trkpt lat="47.81595" lon="-3.28191">
        <ele>19.36</ele>
        <time>2018-01-31T14:47:19Z</time>
      </trkpt>
      <trkpt lat="47.81614" lon="-3.28199">
        <ele>18.88</ele>
        <time>2018-01-31T14:47:36Z</time>
      </trkpt>
      <trkpt lat="47.81617" lon="-3.28201">
        <ele>18.88</ele>
        <time>2018-01-31T14:47:39Z</time>
      </trkpt>
      <trkpt lat="47.81622" lon="-3.28211">
        <ele>17.44</ele>
        <time>2018-01-31T14:47:51Z</time>
      </trkpt>
      <trkpt lat="47.81624" lon="-3.28237">
        <ele>16</ele>
        <time>2018-01-31T14:48:10Z</time>
      </trkpt>
      <trkpt lat="47.81622" lon="-3.28249">
        <ele>15.04</ele>
        <time>2018-01-31T14:48:22Z</time>
      </trkpt>
      <trkpt lat="47.81618" lon="-3.28261">
        <ele>14.56</ele>
        <time>2018-01-31T14:48:32Z</time>
      </trkpt>
      <trkpt lat="47.8162" lon="-3.28284">
        <ele>13.6</ele>
        <time>2018-01-31T14:48:50Z</time>
      </trkpt>
      <trkpt lat="47.8162" lon="-3.28285">
        <ele>14.56</ele>
        <time>2018-01-31T14:48:52Z</time>
      </trkpt>
      <trkpt lat="47.81613" lon="-3.28287">
        <ele>15.04</ele>
        <time>2018-01-31T14:49:06Z</time>
      </trkpt>
      <trkpt lat="47.81605" lon="-3.28292">
        <ele>15.04</ele>
        <time>2018-01-31T14:49:17Z</time>
      </trkpt>
      <trkpt lat="47.816" lon="-3.28295">
        <ele>15.04</ele>
        <time>2018-01-31T14:49:30Z</time>
      </trkpt>
      <trkpt lat="47.81595" lon="-3.28298">
        <ele>15.04</ele>
        <time>2018-01-31T14:49:35Z</time>
      </trkpt>
      <trkpt lat="47.81588" lon="-3.28306">
        <ele>15.04</ele>
        <time>2018-01-31T14:49:45Z</time>
      </trkpt>
      <trkpt lat="47.81572" lon="-3.2832">
        <ele>15.04</ele>
        <time>2018-01-31T14:50:03Z</time>
      </trkpt>
      <trkpt lat="47.81566" lon="-3.28323">
        <ele>14.56</ele>
        <time>2018-01-31T14:50:15Z</time>
      </trkpt>
      <trkpt lat="47.81553" lon="-3.28329">
        <ele>14.56</ele>
        <time>2018-01-31T14:50:28Z</time>
      </trkpt>
      <trkpt lat="47.81536" lon="-3.28336">
        <ele>15.04</ele>
        <time>2018-01-31T14:50:45Z</time>
      </trkpt>
      <trkpt lat="47.81519" lon="-3.2834">
        <ele>16</ele>
        <time>2018-01-31T14:51:01Z</time>
      </trkpt>
      <trkpt lat="47.81505" lon="-3.28343">
        <ele>16</ele>
        <time>2018-01-31T14:51:16Z</time>
      </trkpt>
      <trkpt lat="47.8149" lon="-3.28341">
        <ele>15.52</ele>
        <time>2018-01-31T14:51:32Z</time>
      </trkpt>
      <trkpt lat="47.81473" lon="-3.28341">
        <ele>15.04</ele>
        <time>2018-01-31T14:51:48Z</time>
      </trkpt>
      <trkpt lat="47.81459" lon="-3.28338">
        <ele>15.52</ele>
        <time>2018-01-31T14:52:02Z</time>
      </trkpt>
      <trkpt lat="47.81439" lon="-3.28333">
        <ele>15.04</ele>
        <time>2018-01-31T14:52:22Z</time>
      </trkpt>
      <trkpt lat="47.81434" lon="-3.28332">
        <ele>15.52</ele>
        <time>2018-01-31T14:52:27Z</time>
      </trkpt>
      <trkpt lat="47.81416" lon="-3.28322">
        <ele>15.04</ele>
        <time>2018-01-31T14:52:46Z</time>
      </trkpt>
      <trkpt lat="47.81401" lon="-3.28311">
        <ele>15.04</ele>
        <time>2018-01-31T14:53:04Z</time>
      </trkpt>
      <trkpt lat="47.81385" lon="-3.28301">
        <ele>15.04</ele>
        <time>2018-01-31T14:53:23Z</time>
      </trkpt>
      <trkpt lat="47.81371" lon="-3.28293">
        <ele>15.04</ele>
        <time>2018-01-31T14:53:39Z</time>
      </trkpt>
      <trkpt lat="47.81355" lon="-3.2828">
        <ele>15.04</ele>
        <time>2018-01-31T14:53:57Z</time>
      </trkpt>
      <trkpt lat="47.81338" lon="-3.28265">
        <ele>14.56</ele>
        <time>2018-01-31T14:54:15Z</time>
      </trkpt>
      <trkpt lat="47.81322" lon="-3.2825">
        <ele>15.04</ele>
        <time>2018-01-31T14:54:33Z</time>
      </trkpt>
      <trkpt lat="47.81306" lon="-3.28237">
        <ele>14.08</ele>
        <time>2018-01-31T14:54:51Z</time>
      </trkpt>
      <trkpt lat="47.81285" lon="-3.28226">
        <ele>14.56</ele>
        <time>2018-01-31T14:55:10Z</time>
      </trkpt>
      <trkpt lat="47.81272" lon="-3.28213">
        <ele>14.56</ele>
        <time>2018-01-31T14:55:28Z</time>
      </trkpt>
      <trkpt lat="47.81253" lon="-3.28199">
        <ele>14.08</ele>
        <time>2018-01-31T14:55:47Z</time>
      </trkpt>
      <trkpt lat="47.81233" lon="-3.28189">
        <ele>15.04</ele>
        <time>2018-01-31T14:56:04Z</time>
      </trkpt>
      <trkpt lat="47.81227" lon="-3.28183">
        <ele>15.04</ele>
        <time>2018-01-31T14:56:11Z</time>
      </trkpt>
      <trkpt lat="47.81223" lon="-3.28181">
        <ele>14.56</ele>
        <time>2018-01-31T14:56:16Z</time>
      </trkpt>
      <trkpt lat="47.81208" lon="-3.28167">
        <ele>14.56</ele>
        <time>2018-01-31T14:56:33Z</time>
      </trkpt>
      <trkpt lat="47.81193" lon="-3.28157">
        <ele>14.56</ele>
        <time>2018-01-31T14:56:48Z</time>
      </trkpt>
      <trkpt lat="47.81179" lon="-3.28144">
        <ele>14.56</ele>
        <time>2018-01-31T14:57:03Z</time>
      </trkpt>
      <trkpt lat="47.81176" lon="-3.28142">
        <ele>14.08</ele>
        <time>2018-01-31T14:57:07Z</time>
      </trkpt>
      <trkpt lat="47.81154" lon="-3.28125">
        <ele>14.56</ele>
        <time>2018-01-31T14:57:30Z</time>
      </trkpt>
      <trkpt lat="47.81141" lon="-3.28106">
        <ele>14.56</ele>
        <time>2018-01-31T14:57:49Z</time>
      </trkpt>
      <trkpt lat="47.81127" lon="-3.28088">
        <ele>14.56</ele>
        <time>2018-01-31T14:58:07Z</time>
      </trkpt>
      <trkpt lat="47.81111" lon="-3.28072">
        <ele>14.08</ele>
        <time>2018-01-31T14:58:24Z</time>
      </trkpt>
      <trkpt lat="47.81096" lon="-3.28055">
        <ele>14.08</ele>
        <time>2018-01-31T14:58:40Z</time>
      </trkpt>
      <trkpt lat="47.81083" lon="-3.2804">
        <ele>14.56</ele>
        <time>2018-01-31T14:58:55Z</time>
      </trkpt>
      <trkpt lat="47.81067" lon="-3.28026">
        <ele>14.08</ele>
        <time>2018-01-31T14:59:12Z</time>
      </trkpt>
      <trkpt lat="47.81052" lon="-3.28012">
        <ele>14.08</ele>
        <time>2018-01-31T14:59:27Z</time>
      </trkpt>
      <trkpt lat="47.81035" lon="-3.27997">
        <ele>14.08</ele>
        <time>2018-01-31T14:59:46Z</time>
      </trkpt>
      <trkpt lat="47.81022" lon="-3.27985">
        <ele>14.56</ele>
        <time>2018-01-31T14:59:59Z</time>
      </trkpt>
      <trkpt lat="47.81022" lon="-3.27984">
        <ele>14.08</ele>
        <time>2018-01-31T15:00:00Z</time>
      </trkpt>
      <trkpt lat="47.81005" lon="-3.27972">
        <ele>14.08</ele>
        <time>2018-01-31T15:00:16Z</time>
      </trkpt>
      <trkpt lat="47.80989" lon="-3.27957">
        <ele>14.08</ele>
        <time>2018-01-31T15:00:34Z</time>
      </trkpt>
      <trkpt lat="47.80977" lon="-3.27948">
        <ele>14.56</ele>
        <time>2018-01-31T15:00:48Z</time>
      </trkpt>
      <trkpt lat="47.80961" lon="-3.27935">
        <ele>14.08</ele>
        <time>2018-01-31T15:01:04Z</time>
      </trkpt>
      <trkpt lat="47.80946" lon="-3.27919">
        <ele>14.56</ele>
        <time>2018-01-31T15:01:22Z</time>
      </trkpt>
      <trkpt lat="47.80931" lon="-3.27909">
        <ele>15.04</ele>
        <time>2018-01-31T15:01:36Z</time>
      </trkpt>
      <trkpt lat="47.80912" lon="-3.27903">
        <ele>14.56</ele>
        <time>2018-01-31T15:01:54Z</time>
      </trkpt>
      <trkpt lat="47.80896" lon="-3.27899">
        <ele>14.56</ele>
        <time>2018-01-31T15:02:08Z</time>
      </trkpt>
      <trkpt lat="47.80881" lon="-3.27899">
        <ele>14.08</ele>
        <time>2018-01-31T15:02:19Z</time>
      </trkpt>
      <trkpt lat="47.80862" lon="-3.27905">
        <ele>14.08</ele>
        <time>2018-01-31T15:02:35Z</time>
      </trkpt>
      <trkpt lat="47.80848" lon="-3.2791">
        <ele>14.08</ele>
        <time>2018-01-31T15:02:50Z</time>
      </trkpt>
      <trkpt lat="47.80832" lon="-3.27924">
        <ele>14.56</ele>
        <time>2018-01-31T15:03:07Z</time>
      </trkpt>
      <trkpt lat="47.80817" lon="-3.27937">
        <ele>14.56</ele>
        <time>2018-01-31T15:03:25Z</time>
      </trkpt>
      <trkpt lat="47.808" lon="-3.27956">
        <ele>14.56</ele>
        <time>2018-01-31T15:03:41Z</time>
      </trkpt>
      <trkpt lat="47.80791" lon="-3.27966">
        <ele>14.08</ele>
        <time>2018-01-31T15:03:51Z</time>
      </trkpt>
      <trkpt lat="47.80777" lon="-3.27979">
        <ele>14.08</ele>
        <time>2018-01-31T15:04:08Z</time>
      </trkpt>
      <trkpt lat="47.80765" lon="-3.27994">
        <ele>14.56</ele>
        <time>2018-01-31T15:04:23Z</time>
      </trkpt>
      <trkpt lat="47.8076" lon="-3.28003">
        <ele>14.08</ele>
        <time>2018-01-31T15:04:30Z</time>
      </trkpt>
      <trkpt lat="47.80747" lon="-3.28014">
        <ele>14.08</ele>
        <time>2018-01-31T15:04:46Z</time>
      </trkpt>
      <trkpt lat="47.80732" lon="-3.28031">
        <ele>13.6</ele>
        <time>2018-01-31T15:05:03Z</time>
      </trkpt>
      <trkpt lat="47.80716" lon="-3.28043">
        <ele>13.12</ele>
        <time>2018-01-31T15:05:20Z</time>
      </trkpt>
      <trkpt lat="47.807" lon="-3.28056">
        <ele>13.6</ele>
        <time>2018-01-31T15:05:38Z</time>
      </trkpt>
      <trkpt lat="47.80685" lon="-3.2807">
        <ele>13.6</ele>
        <time>2018-01-31T15:05:53Z</time>
      </trkpt>
      <trkpt lat="47.80671" lon="-3.28088">
        <ele>13.6</ele>
        <time>2018-01-31T15:06:09Z</time>
      </trkpt>
      <trkpt lat="47.80659" lon="-3.28098">
        <ele>14.08</ele>
        <time>2018-01-31T15:06:23Z</time>
      </trkpt>
      <trkpt lat="47.80651" lon="-3.28108">
        <ele>14.56</ele>
        <time>2018-01-31T15:06:34Z</time>
      </trkpt>
      <trkpt lat="47.80646" lon="-3.28111">
        <ele>14.08</ele>
        <time>2018-01-31T15:06:40Z</time>
      </trkpt>
      <trkpt lat="47.80637" lon="-3.28123">
        <ele>14.08</ele>
        <time>2018-01-31T15:06:57Z</time>
      </trkpt>
      <trkpt lat="47.80629" lon="-3.28129">
        <ele>14.08</ele>
        <time>2018-01-31T15:07:16Z</time>
      </trkpt>
      <trkpt lat="47.80637" lon="-3.2813">
        <ele>14.08</ele>
        <time>2018-01-31T15:07:42Z</time>
      </trkpt>
      <trkpt lat="47.80638" lon="-3.28132">
        <ele>14.08</ele>
        <time>2018-01-31T15:08:03Z</time>
      </trkpt>
      <trkpt lat="47.80629" lon="-3.28133">
        <ele>14.08</ele>
        <time>2018-01-31T15:08:21Z</time>
      </trkpt>
      <trkpt lat="47.80623" lon="-3.28132">
        <ele>14.56</ele>
        <time>2018-01-31T15:08:34Z</time>
      </trkpt>
      <trkpt lat="47.80619" lon="-3.28134">
        <ele>14.08</ele>
        <time>2018-01-31T15:08:58Z</time>
      </trkpt>
      <trkpt lat="47.80623" lon="-3.28136">
        <ele>14.08</ele>
        <time>2018-01-31T15:09:20Z</time>
      </trkpt>
      <trkpt lat="47.80622" lon="-3.28134">
        <ele>14.56</ele>
        <time>2018-01-31T15:09:38Z</time>
      </trkpt>
      <trkpt lat="47.80625" lon="-3.28136">
        <ele>15.52</ele>
        <time>2018-01-31T15:10:15Z</time>
      </trkpt>
      <trkpt lat="47.80625" lon="-3.28138">
        <ele>15.04</ele>
        <time>2018-01-31T15:10:26Z</time>
      </trkpt>
    </trkseg>
  </trk>
</gpx>